This is the latest recevied weather packets stored in our database for station/object WBGG. If no packets are shown the sender has not sent any weather packets the latest 10 day(s).
| Time | Temp. | Humidity | Pressure | Rain* | Wind** | Luminosity | Snow |
|---|---|---|---|---|---|---|---|
| 1778184615 | 25.56° C | 88% | 1007 hPa | - | - | - | - |
| 1778182793 | 25.56° C | 94% | 1007 hPa | - | - | - | - |
| 1778181012 | 25.56° C | 94% | 1007 hPa | - | - | - | - |
| 1778179195 | 25.56° C | 94% | 1008 hPa | - | - | - | - |
| 1778177411 | 25.56° C | 88% | 1008 hPa | - | - | - | - |
| 1778175593 | 25.56° C | 88% | 1008 hPa | - | - | - | - |
| 1778173818 | 25.56° C | 88% | 1009 hPa | - | - | - | - |
| 1778171993 | 25.56° C | 94% | 1008 hPa | - | - | - | - |
| 1778170211 | 25.56° C | 94% | 1008 hPa | - | - | - | - |
| 1778168394 | 26.67° C | 88% | 1008 hPa | - | - | - | - |
| 1778166611 | 26.67° C | 88% | 1008 hPa | - | - | - | - |
| 1778164795 | 26.67° C | 94% | 1008 hPa | - | - | - | - |
| 1778163011 | 26.67° C | 94% | 1008 hPa | - | - | - | - |
| 1778161193 | 26.67° C | 88% | 1008 hPa | - | - | - | - |
| 1778159411 | 26.67° C | 88% | 1008 hPa | - | - | - | - |
| 1778157593 | 26.67° C | 83% | 1007 hPa | - | - | - | - |
| 1778155819 | 26.67° C | 83% | 1007 hPa | - | - | - | - |
| 1778153993 | 26.67° C | 88% | 1006 hPa | - | - | - | - |
| 1778152212 | 26.67° C | 88% | 1006 hPa | - | - | - | - |
| 1778150394 | 27.78° C | 83% | 1005 hPa | - | - | - | - |
| 1778148610 | 26.67° C | 94% | 1005 hPa | - | - | - | - |
| 1778146796 | 26.67° C | 94% | 1005 hPa | - | - | - | - |
| 1778145010 | 27.78° C | 88% | 1005 hPa | - | - | - | - |
| 1778143192 | 30° C | 84% | 1005 hPa | - | - | - | - |
| 1778141419 | 31.67° C | 74% | 1005 hPa | - | - | - | - |
* Rain since midnight (hover to see other rain measurements)
** Current wind speed in m/s (hover to see current wind gust speed)